createdAt,value
2019-02-27T00:01:24.923Z,3.49
2019-02-27T00:03:53.302Z,3.51
2019-02-27T00:06:41.031Z,3.47
2019-02-27T00:09:49.334Z,3.44
2019-02-27T00:12:36.962Z,3.39
2019-02-27T00:15:45.256Z,3.41
2019-02-27T00:18:13.642Z,3.42
2019-02-27T00:20:42.025Z,3.35
2019-02-27T00:23:10.403Z,3.35
2019-02-27T00:25:38.793Z,3.23
2019-02-27T00:28:26.421Z,3.25
2019-02-27T00:30:54.814Z,3.28
2019-02-27T00:33:42.310Z,3.28
2019-02-27T00:39:24.267Z,3.19
2019-02-27T00:44:26.980Z,3.15
2019-02-27T00:46:55.369Z,3.17
2019-02-27T00:49:23.747Z,3.15
2019-02-27T00:51:52.150Z,3.14
2019-02-27T00:54:20.799Z,3.15
2019-02-27T00:56:49.230Z,3.13
2019-02-27T00:59:17.625Z,3.11
2019-02-27T01:01:47.429Z,3.11
2019-02-27T01:04:16.151Z,3.04
2019-02-27T01:06:45.061Z,3.03
2019-02-27T01:09:14.928Z,2.99
2019-02-27T01:11:43.315Z,2.76
2019-02-27T01:14:11.691Z,2.81
2019-02-27T01:16:40.083Z,2.86
2019-02-27T01:19:08.460Z,2.83
2019-02-27T01:21:36.856Z,2.79
2019-02-27T01:24:05.233Z,2.74
2019-02-27T01:26:33.621Z,2.74
2019-02-27T01:29:02.018Z,2.74
2019-02-27T01:31:30.404Z,2.74
2019-02-27T01:33:58.780Z,2.76
2019-02-27T01:36:27.171Z,2.71
2019-02-27T01:38:55.550Z,2.63
2019-02-27T01:41:24.574Z,2.63
2019-02-27T01:43:53.820Z,2.40
2019-02-27T01:46:22.210Z,2.45
2019-02-27T01:48:50.596Z,2.49
2019-02-27T01:51:18.972Z,2.43
2019-02-27T01:53:47.449Z,2.46
2019-02-27T01:56:15.840Z,2.33
2019-02-27T01:58:44.468Z,2.38
2019-02-27T02:01:12.853Z,2.29
2019-02-27T02:03:41.401Z,2.19
2019-02-27T02:06:09.798Z,2.27
2019-02-27T02:08:38.421Z,2.27
2019-02-27T02:11:06.803Z,2.24
2019-02-27T02:13:57.538Z,2.30
2019-02-27T02:16:34.174Z,2.32
2019-02-27T02:19:33.837Z,2.34
2019-02-27T02:22:08.892Z,2.30
2019-02-27T02:24:58.735Z,2.26
2019-02-27T02:27:35.942Z,2.24
2019-02-27T02:30:41.055Z,2.21
2019-02-27T02:33:35.095Z,2.21
2019-02-27T02:36:15.358Z,2.11
2019-02-27T02:39:01.701Z,2.07
2019-02-27T02:41:48.016Z,2.08
2019-02-27T02:44:43.714Z,2.09
2019-02-27T02:47:24.252Z,2.08
2019-02-27T02:50:17.658Z,2.06
2019-02-27T02:52:59.981Z,2.02
2019-02-27T02:55:36.940Z,1.86
2019-02-27T02:58:11.356Z,1.87
2019-02-27T03:00:49.947Z,1.90
2019-02-27T03:03:27.158Z,1.88
2019-02-27T03:06:04.620Z,1.74
2019-02-27T03:08:38.660Z,1.80
2019-02-27T03:11:43.563Z,1.85
2019-02-27T03:14:23.494Z,1.89
2019-02-27T03:17:21.482Z,1.81
2019-02-27T03:19:55.610Z,1.74
2019-02-27T03:22:43.573Z,1.68
2019-02-27T03:25:24.006Z,1.58
2019-02-27T03:27:55.450Z,1.23
2019-02-27T03:30:36.842Z,1.40
2019-02-27T03:33:24.478Z,1.46
2019-02-27T03:36:08.644Z,1.51
2019-02-27T03:38:59.127Z,1.57
2019-02-27T03:41:31.426Z,1.59
2019-02-27T03:44:20.222Z,1.59
2019-02-27T03:46:50.201Z,1.58
2019-02-27T03:49:40.687Z,1.64
2019-02-27T03:52:27.605Z,1.65
2019-02-27T03:55:07.949Z,1.61
2019-02-27T03:58:02.010Z,1.63
2019-02-27T04:00:43.733Z,1.63
2019-02-27T04:03:27.151Z,1.65
2019-02-27T04:06:10.196Z,1.64
2019-02-27T04:08:58.594Z,1.54
2019-02-27T04:11:27.513Z,1.54
2019-02-27T04:14:03.247Z,1.57
2019-02-27T04:16:29.301Z,1.60
2019-02-27T04:18:59.965Z,1.64
2019-02-27T04:21:26.259Z,1.66
2019-02-27T04:23:54.644Z,1.66
2019-02-27T04:26:23.020Z,1.66
2019-02-27T04:28:51.405Z,1.75
2019-02-27T04:31:19.800Z,1.81
2019-02-27T04:33:48.178Z,1.86
2019-02-27T04:36:16.555Z,1.86
2019-02-27T04:38:44.940Z,1.88
2019-02-27T04:41:17.881Z,1.89
2019-02-27T04:43:43.766Z,1.87
2019-02-27T04:46:12.136Z,1.85
2019-02-27T04:48:40.534Z,1.85
2019-02-27T04:51:08.933Z,1.85
2019-02-27T04:53:37.336Z,1.82
2019-02-27T04:56:05.717Z,1.77
2019-02-27T04:58:34.097Z,1.66
2019-02-27T05:01:02.481Z,1.67
2019-02-27T05:03:30.877Z,1.72
2019-02-27T05:05:59.289Z,1.69
2019-02-27T05:08:27.819Z,1.57
2019-02-27T05:10:56.250Z,1.73
2019-02-27T05:13:24.618Z,1.75
2019-02-27T05:15:53.303Z,1.78
2019-02-27T05:18:21.679Z,1.77
2019-02-27T05:20:50.068Z,1.73
2019-02-27T05:23:18.450Z,1.66
2019-02-27T05:25:46.868Z,1.59
2019-02-27T05:28:15.256Z,1.52
2019-02-27T05:30:45.224Z,1.53
2019-02-27T05:33:13.982Z,1.47
2019-02-27T05:35:42.377Z,1.39
2019-02-27T05:38:10.769Z,1.30
2019-02-27T05:40:39.169Z,1.38
2019-02-27T05:43:07.561Z,1.40
2019-02-27T05:45:35.963Z,1.32
2019-02-27T05:48:04.471Z,1.33
2019-02-27T05:50:35.255Z,1.36
2019-02-27T05:53:02.994Z,1.39
2019-02-27T05:55:31.382Z,1.30
2019-02-27T05:57:59.769Z,1.14
2019-02-27T06:00:28.154Z,1.22
2019-02-27T06:02:56.985Z,1.11
2019-02-27T06:05:25.356Z,1.07
2019-02-27T06:07:53.733Z,1.17
2019-02-27T06:10:23.581Z,1.25
2019-02-27T06:12:52.097Z,1.30
2019-02-27T06:15:20.483Z,1.35
2019-02-27T06:17:49.719Z,1.37
2019-02-27T06:20:18.264Z,1.33
2019-02-27T06:22:46.647Z,1.23
2019-02-27T06:25:23.179Z,1.20
2019-02-27T06:27:48.753Z,1.20
2019-02-27T06:30:18.981Z,1.32
2019-02-27T06:32:47.384Z,1.40
2019-02-27T06:35:16.051Z,1.47
2019-02-27T06:37:44.429Z,1.52
2019-02-27T06:40:18.830Z,1.57
2019-02-27T06:42:47.373Z,1.63
2019-02-27T06:45:18.764Z,1.67
2019-02-27T06:47:47.144Z,1.64
2019-02-27T06:50:18.291Z,1.71
2019-02-27T06:52:46.669Z,1.80
2019-02-27T06:55:54.976Z,1.87
2019-02-27T06:58:42.598Z,2.04
2019-02-27T07:01:13.111Z,3.22
2019-02-27T07:11:38.388Z,10.88
2019-02-27T07:14:06.778Z,12.43
2019-02-27T07:16:56.993Z,13.64
2019-02-27T07:19:24.611Z,14.87
2019-02-27T07:21:52.999Z,16.20
2019-02-27T07:24:21.381Z,17.27
2019-02-27T07:26:50.698Z,18.30
2019-02-27T07:29:21.921Z,19.23
2019-02-27T07:32:09.110Z,20.16
2019-02-27T07:34:56.752Z,21.06
2019-02-27T07:37:25.143Z,21.98
2019-02-27T07:40:12.777Z,22.82
2019-02-27T07:43:00.416Z,23.48
2019-02-27T07:45:28.803Z,24.35
2019-02-27T07:51:10.931Z,25.73
2019-02-27T07:53:58.429Z,26.36
2019-02-27T07:56:26.819Z,26.96
2019-02-27T07:59:14.324Z,27.42
2019-02-27T08:01:43.942Z,26.81
2019-02-27T08:04:12.825Z,26.64
2019-02-27T08:06:41.566Z,26.98
2019-02-27T08:12:00.470Z,26.36
2019-02-27T08:14:28.885Z,26.48
2019-02-27T08:17:17.865Z,26.47
2019-02-27T08:19:46.542Z,26.80
2019-02-27T08:22:54.880Z,27.10
2019-02-27T08:25:23.285Z,27.37
2019-02-27T08:28:11.038Z,27.32
2019-02-27T08:30:39.448Z,27.39
2019-02-27T08:33:08.410Z,27.39
2019-02-27T08:35:57.126Z,27.07
2019-02-27T08:40:59.524Z,27.87
2019-02-27T08:43:47.188Z,27.69
2019-02-27T08:46:15.592Z,27.09
2019-02-27T08:49:03.257Z,27.07
2019-02-27T08:51:31.671Z,26.92
2019-02-27T08:54:00.078Z,26.74
2019-02-27T08:56:30.072Z,26.75
2019-02-27T08:58:58.616Z,27.24
2019-02-27T09:04:33.594Z,28.49
2019-02-27T09:07:02.819Z,29.15
2019-02-27T09:14:55.871Z,29.12
2019-02-27T09:17:26.899Z,29.44
2019-02-27T09:19:53.849Z,29.41
2019-02-27T09:22:41.594Z,29.63
2019-02-27T09:25:57.047Z,30.22
2019-02-27T09:28:20.041Z,30.54
2019-02-27T09:33:38.554Z,30.91
2019-02-27T09:36:00.825Z,30.76
2019-02-27T09:38:48.353Z,30.31
2019-02-27T09:41:16.761Z,30.49
2019-02-27T09:44:04.294Z,30.28
2019-02-27T09:46:32.703Z,30.01
2019-02-27T09:49:20.234Z,30.49
2019-02-27T09:51:48.643Z,30.34
2019-02-27T09:54:36.306Z,30.49
2019-02-27T09:57:04.718Z,30.43
2019-02-27T09:59:53.663Z,29.89
2019-02-27T10:02:22.506Z,29.46
2019-02-27T10:04:50.913Z,29.04
2019-02-27T10:07:38.574Z,29.12
2019-02-27T10:10:46.882Z,29.24
2019-02-27T10:16:08.111Z,28.63
2019-02-27T10:18:55.892Z,28.04
2019-02-27T10:21:24.329Z,28.04
2019-02-27T10:23:53.286Z,27.25
2019-02-27T10:26:22.873Z,26.83
2019-02-27T10:28:51.544Z,26.65
2019-02-27T10:31:39.065Z,26.91
2019-02-27T10:34:07.479Z,26.36
2019-02-27T10:36:55.180Z,25.69
2019-02-27T10:39:23.628Z,25.90
2019-02-27T10:41:52.034Z,25.85
2019-02-27T10:44:39.787Z,25.61
2019-02-27T10:47:27.442Z,25.41
2019-02-27T10:50:15.106Z,24.92
2019-02-27T10:53:02.838Z,24.56
2019-02-27T10:55:50.355Z,24.02
2019-02-27T10:58:18.775Z,23.57
2019-02-27T11:03:55.529Z,23.15
2019-02-27T11:06:45.136Z,22.43
2019-02-27T11:09:32.734Z,21.95
2019-02-27T11:12:20.254Z,21.51
2019-02-27T11:15:08.243Z,21.18
2019-02-27T11:17:55.916Z,20.99
2019-02-27T11:20:24.743Z,20.35
2019-02-27T11:22:54.483Z,20.33
2019-02-27T11:25:42.238Z,20.23
2019-02-27T11:28:29.890Z,20.06
2019-02-27T11:31:17.551Z,20.29
2019-02-27T11:33:45.957Z,20.17
2019-02-27T11:36:34.939Z,20.05
2019-02-27T11:39:23.028Z,20.24
2019-02-27T11:41:51.433Z,19.88
2019-02-27T11:44:19.850Z,19.98
2019-02-27T11:46:58.420Z,20.13
2019-02-27T11:49:18.394Z,20.22
2019-02-27T11:51:46.803Z,20.31
2019-02-27T11:54:34.461Z,20.31
2019-02-27T11:57:02.865Z,20.20
2019-02-27T11:59:50.395Z,20.04
2019-02-27T12:05:46.159Z,20.38
2019-02-27T12:08:14.565Z,20.12
2019-02-27T12:13:35.975Z,20.66
2019-02-27T12:16:44.299Z,20.61
2019-02-27T12:19:12.708Z,20.37
2019-02-27T12:21:41.129Z,20.15
2019-02-27T12:24:28.645Z,20.12
2019-02-27T12:27:25.708Z,19.93
2019-02-27T12:29:46.434Z,19.69
2019-02-27T12:32:14.851Z,19.63
2019-02-27T12:35:03.190Z,20.06
2019-02-27T12:37:50.973Z,20.18
2019-02-27T12:40:59.277Z,20.38
2019-02-27T12:43:27.682Z,20.45
2019-02-27T12:46:15.435Z,20.58
2019-02-27T12:48:46.147Z,20.53
2019-02-27T12:51:13.984Z,20.72
2019-02-27T12:53:42.527Z,20.47
2019-02-27T12:58:46.482Z,20.57
2019-02-27T13:01:16.360Z,20.98
2019-02-27T13:03:45.018Z,21.22
2019-02-27T13:06:13.438Z,21.26
2019-02-27T13:08:41.844Z,21.31
2019-02-27T13:11:50.159Z,21.51
2019-02-27T13:14:18.561Z,21.26
2019-02-27T13:17:06.225Z,21.60
2019-02-27T13:19:34.626Z,21.63
2019-02-27T13:22:22.286Z,21.45
2019-02-27T13:25:09.939Z,21.65
2019-02-27T13:27:40.391Z,21.73
2019-02-27T13:30:28.211Z,22.16
2019-02-27T13:33:00.614Z,22.30
2019-02-27T13:35:28.443Z,22.59
2019-02-27T13:43:39.978Z,22.87
2019-02-27T13:46:27.498Z,22.88
2019-02-27T13:48:55.909Z,22.94
2019-02-27T13:51:24.308Z,23.10
2019-02-27T13:53:52.727Z,22.96
2019-02-27T13:56:21.132Z,23.18
2019-02-27T13:59:10.903Z,23.28
2019-02-27T14:01:39.156Z,23.12
2019-02-27T14:04:26.707Z,23.09
2019-02-27T14:07:14.358Z,22.85
2019-02-27T14:09:42.755Z,22.66
2019-02-27T14:12:51.083Z,22.69
2019-02-27T14:16:00.869Z,22.63
2019-02-27T14:18:29.573Z,22.81
2019-02-27T14:21:17.117Z,22.85
2019-02-27T14:23:46.827Z,22.93
2019-02-27T14:26:15.651Z,22.86
2019-02-27T14:28:44.061Z,22.95
2019-02-27T14:33:59.917Z,22.86
2019-02-27T14:36:28.325Z,22.38
2019-02-27T14:38:56.837Z,22.15
2019-02-27T14:41:25.230Z,22.10
2019-02-27T14:44:12.891Z,21.78
2019-02-27T14:47:00.411Z,22.10
2019-02-27T14:49:28.828Z,22.15
2019-02-27T14:54:44.688Z,22.42
2019-02-27T14:57:16.038Z,22.18
2019-02-27T15:02:22.054Z,22.08
2019-02-27T15:04:47.765Z,22.14
2019-02-27T15:07:35.285Z,22.13
2019-02-27T15:10:43.622Z,22.05
2019-02-27T15:13:31.296Z,21.50
2019-02-27T15:15:59.702Z,21.43
2019-02-27T15:18:28.120Z,21.55
2019-02-27T15:20:56.527Z,21.55
2019-02-27T15:23:44.193Z,21.42
2019-02-27T15:26:13.906Z,21.47
2019-02-27T15:28:42.734Z,21.12
2019-02-27T15:31:11.147Z,21.41
2019-02-27T15:33:58.807Z,21.48
2019-02-27T15:36:46.331Z,21.43
2019-02-27T15:39:20.272Z,21.20
2019-02-27T15:42:08.558Z,21.27
2019-02-27T15:44:34.523Z,21.41
2019-02-27T15:50:56.562Z,21.23
2019-02-27T15:53:41.473Z,20.81
2019-02-27T15:59:44.746Z,21.08
2019-02-27T16:02:13.166Z,21.05
2019-02-27T16:05:00.821Z,20.82
2019-02-27T16:07:29.233Z,20.54
2019-02-27T16:09:57.658Z,20.65
2019-02-27T16:12:45.308Z,20.50
2019-02-27T16:15:53.634Z,20.34
2019-02-27T16:21:09.495Z,19.95
2019-02-27T16:23:38.132Z,19.90
2019-02-27T16:26:08.044Z,19.85
2019-02-27T16:31:23.906Z,19.69
2019-02-27T16:34:11.793Z,19.60
2019-02-27T16:36:40.211Z,19.61
2019-02-27T16:42:22.096Z,19.20
2019-02-27T16:44:50.507Z,19.12
2019-02-27T16:47:19.659Z,18.98
2019-02-27T16:49:50.467Z,18.89
2019-02-27T16:52:41.735Z,18.84
2019-02-27T16:55:28.141Z,18.72
2019-02-27T16:58:36.449Z,18.39
2019-02-27T17:01:04.868Z,18.32
2019-02-27T17:03:33.268Z,18.07
2019-02-27T17:06:20.933Z,17.95
2019-02-27T17:09:10.135Z,17.77
2019-02-27T17:11:38.736Z,17.69
2019-02-27T17:14:26.258Z,17.65
2019-02-27T17:16:54.677Z,17.50
2019-02-27T17:19:42.206Z,17.40
2019-02-27T17:22:10.997Z,17.24
2019-02-27T17:24:40.741Z,17.16
2019-02-27T17:27:28.269Z,17.09
2019-02-27T17:30:16.041Z,16.99
2019-02-27T17:33:24.354Z,16.86
2019-02-27T17:35:53.212Z,16.73
2019-02-27T17:38:22.895Z,16.62
2019-02-27T17:41:10.560Z,16.58
2019-02-27T17:43:38.967Z,16.50
2019-02-27T17:46:07.399Z,16.36
2019-02-27T17:48:35.807Z,16.33
2019-02-27T17:51:06.539Z,16.18
2019-02-27T17:53:34.347Z,16.09
2019-02-27T17:56:02.763Z,15.97
2019-02-27T17:58:33.597Z,15.83
2019-02-27T18:03:41.808Z,15.56
2019-02-27T18:06:31.167Z,15.42
2019-02-27T18:12:05.956Z,15.21
2019-02-27T18:14:53.483Z,15.14
2019-02-27T18:20:14.849Z,14.98
2019-02-27T18:22:45.930Z,14.88
2019-02-27T18:25:32.721Z,14.83
2019-02-27T18:28:01.137Z,14.64
2019-02-27T18:30:52.840Z,14.60
2019-02-27T18:33:18.927Z,14.46
2019-02-27T18:35:47.334Z,14.37
2019-02-27T18:38:15.755Z,14.40
2019-02-27T18:40:44.470Z,14.30
2019-02-27T18:43:12.888Z,14.34
2019-02-27T18:45:41.294Z,14.37
2019-02-27T18:48:10.113Z,14.29
2019-02-27T18:50:38.993Z,14.25
2019-02-27T18:53:26.532Z,14.19
2019-02-27T18:55:54.935Z,14.10
2019-02-27T18:58:42.463Z,14.07
2019-02-27T19:01:50.791Z,13.96
2019-02-27T19:04:19.202Z,13.72
2019-02-27T19:09:40.787Z,13.66
2019-02-27T19:12:09.203Z,13.54
2019-02-27T19:17:44.426Z,13.27
2019-02-27T19:20:52.739Z,13.27
2019-02-27T19:23:21.157Z,13.13
2019-02-27T19:25:49.559Z,13.09
2019-02-27T19:28:37.217Z,12.99
2019-02-27T19:33:53.084Z,13.02
2019-02-27T19:36:21.488Z,12.90
2019-02-27T19:38:49.913Z,12.71
2019-02-27T19:41:58.239Z,12.78
2019-02-27T19:44:45.894Z,12.66
2019-02-27T19:47:33.559Z,12.68
2019-02-27T19:53:08.665Z,12.74
2019-02-27T19:56:00.601Z,12.66
2019-02-27T19:58:26.318Z,12.42
2019-02-27T20:00:54.727Z,12.51
2019-02-27T20:03:42.325Z,12.52
2019-02-27T20:09:20.082Z,12.53
2019-02-27T20:12:06.739Z,12.54
2019-02-27T20:17:49.423Z,12.37
2019-02-27T20:20:40.949Z,12.40
2019-02-27T20:23:07.582Z,12.30
2019-02-27T20:25:56.137Z,12.39
2019-02-27T20:28:44.352Z,12.26
2019-02-27T20:31:17.959Z,12.30
2019-02-27T20:33:42.907Z,12.25
2019-02-27T20:36:33.012Z,12.23
2019-02-27T20:39:00.688Z,12.05
2019-02-27T20:41:48.337Z,12.00
2019-02-27T20:44:37.297Z,11.96
2019-02-27T20:47:25.114Z,12.12
2019-02-27T20:50:12.762Z,12.00
2019-02-27T20:53:00.422Z,12.07
2019-02-27T20:55:30.918Z,11.74
2019-02-27T20:58:18.476Z,11.84
2019-02-27T21:00:46.884Z,11.81
2019-02-27T21:03:15.302Z,11.82
2019-02-27T21:08:33.291Z,11.74
2019-02-27T21:11:02.926Z,11.63
2019-02-27T21:14:11.263Z,11.55
2019-02-27T21:19:28.759Z,11.64
2019-02-27T21:22:16.531Z,11.58
2019-02-27T21:25:04.189Z,11.60
2019-02-27T21:30:51.816Z,11.35
2019-02-27T21:33:16.889Z,11.41
2019-02-27T21:35:45.294Z,11.28
2019-02-27T21:38:16.703Z,11.22
2019-02-27T21:40:43.833Z,11.23
2019-02-27T21:43:31.490Z,11.30
2019-02-27T21:45:59.898Z,11.46
2019-02-27T21:48:47.559Z,11.24
2019-02-27T21:54:22.753Z,11.14
2019-02-27T21:57:10.411Z,10.99
2019-02-27T21:59:58.069Z,10.92
2019-02-27T22:05:18.413Z,10.93
2019-02-27T22:10:53.687Z,10.89
2019-02-27T22:13:29.460Z,10.80
2019-02-27T22:15:55.775Z,10.85
2019-02-27T22:18:22.550Z,10.98
2019-02-27T22:20:50.962Z,10.86
2019-02-27T22:23:38.613Z,10.82
2019-02-27T22:26:07.034Z,10.89
2019-02-27T22:31:22.902Z,10.80
2019-02-27T22:34:10.428Z,10.66
2019-02-27T22:36:58.343Z,10.79
2019-02-27T22:39:26.779Z,10.90
2019-02-27T22:42:15.327Z,10.86
2019-02-27T22:47:21.673Z,10.88
2019-02-27T22:49:49.334Z,10.96
2019-02-27T22:52:19.305Z,11.00
2019-02-27T22:54:47.877Z,11.02
2019-02-27T22:57:16.281Z,10.85
2019-02-27T23:05:32.214Z,10.91
2019-02-27T23:08:00.614Z,10.88
2019-02-27T23:10:48.274Z,10.85
2019-02-27T23:13:56.606Z,10.77
2019-02-27T23:18:59.445Z,10.70
2019-02-27T23:21:47.111Z,10.60
2019-02-27T23:27:03.392Z,10.44
2019-02-27T23:29:52.330Z,10.44
2019-02-27T23:32:20.750Z,10.38
2019-02-27T23:34:49.152Z,10.20
2019-02-27T23:37:17.589Z,10.18
2019-02-27T23:39:46.005Z,10.15
2019-02-27T23:45:12.721Z,10.12
2019-02-27T23:47:41.283Z,10.14
2019-02-27T23:50:30.481Z,10.04
2019-02-27T23:52:58.886Z,9.94
2019-02-27T23:56:07.207Z,9.91
